Terminal Aerodrome Forecast
Issued by NWS

Home | Current Version | Previous Version | Text Only | Print | Product List | Glossary On
Versions: 1 2 3 4 5 6 7 8 9 10 11 12 13 14 15 16 17 18 19 20
000
FTUS41 KGYX 301725
TAFLEB
TAF
KLEB 301725Z 3018/0118 VRB03KT P6SM OVC015
     FM010300 00000KT 3SM BR OVC012
     FM010900 00000KT 1SM BR BKN003
     FM011300 36006KT P6SM -SHRA OVC025=

USA.gov is the U.S. government's official web portal to all federal, state and local government web resources and services.